KHDC

Hammond Northshore Regional Airport

Hammond, Louisiana, USA
METAR KHDC 221355Z AUTO 00000KT 10SM CLR 11/06 A3022 RMK AO2
Observed Flight Rules
Oct-22 @ 13:55 UTC (25 minutes ago) Visual Flight Rules
Visibility Clouds
10 miles
  • Clear skies
Temperatures Readings
Current 11°C / 52°F
Dewpoint 6°C / 43°F
Humidity 72%
Altimeter 30.22" Hg
Pressure 1023 hPa
Elevation 13
METAR KHDC 221355Z AUTO 00000KT 10SM CLR 11/06 A3022 RMK AO2
Observed Flight Rules
Oct-22 @ 13:55 UTC
(25 minutes ago)
VFR
Clouds
  • Clear skies
Temperature Dewpoint
11°C / 52°F 6°C / 43°F
Humidity Altimeter Pressure
72% 30.22" Hg 1023 hPa